sensor_id;sensor_type;location;lat;lon;timestamp;temperature;humidity
18067;DHT22;9158;51.528;7.192;2023-08-24T00:00:14;18.80;99.90
18067;DHT22;9158;51.528;7.192;2023-08-24T00:00:45;18.80;99.90
18067;DHT22;9158;51.528;7.192;2023-08-24T00:01:17;18.80;99.90
18067;DHT22;9158;51.528;7.192;2023-08-24T00:01:48;18.80;99.90
18067;DHT22;9158;51.528;7.192;2023-08-24T00:02:19;18.80;1.00
18067;DHT22;9158;51.528;7.192;2023-08-24T00:02:50;18.90;99.90
18067;DHT22;9158;51.528;7.192;2023-08-24T00:03:22;18.90;1.00
18067;DHT22;9158;51.528;7.192;2023-08-24T00:03:54;18.90;1.00
18067;DHT22;9158;51.528;7.192;2023-08-24T00:04:25;18.90;1.00
18067;DHT22;9158;51.528;7.192;2023-08-24T00:04:57;18.90;1.00
18067;DHT22;9158;51.528;7.192;2023-08-24T00:05:28;18.90;1.00
18067;DHT22;9158;51.528;7.192;2023-08-24T00:05:59;18.80;1.00
18067;DHT22;9158;51.528;7.192;2023-08-24T00:06:31;18.80;1.00
18067;DHT22;9158;51.528;7.192;2023-08-24T00:07:03;18.80;1.00
18067;DHT22;9158;51.528;7.192;2023-08-24T00:07:34;18.80;1.00
18067;DHT22;9158;51.528;7.192;2023-08-24T00:08:05;18.90;1.00
18067;DHT22;9158;51.528;7.192;2023-08-24T00:08:36;18.90;1.00
18067;DHT22;9158;51.528;7.192;2023-08-24T00:09:08;18.90;1.00
18067;DHT22;9158;51.528;7.192;2023-08-24T00:09:39;18.90;1.00
18067;DHT22;9158;51.528;7.192;2023-08-24T00:10:10;18.90;1.00
18067;DHT22;9158;51.528;7.192;2023-08-24T00:10:43;18.90;99.90
18067;DHT22;9158;51.528;7.192;2023-08-24T00:11:17;19.00;1.00
18067;DHT22;9158;51.528;7.192;2023-08-24T00:11:48;19.00;99.90
18067;DHT22;9158;51.528;7.192;2023-08-24T00:12:19;18.90;1.00
18067;DHT22;9158;51.528;7.192;2023-08-24T00:12:50;18.90;99.90
18067;DHT22;9158;51.528;7.192;2023-08-24T00:13:22;18.90;1.00
18067;DHT22;9158;51.528;7.192;2023-08-24T00:13:53;18.90;99.90
18067;DHT22;9158;51.528;7.192;2023-08-24T00:14:24;18.90;1.00
18067;DHT22;9158;51.528;7.192;2023-08-24T00:14:55;18.90;99.90
18067;DHT22;9158;51.528;7.192;2023-08-24T00:15:27;18.90;99.90
18067;DHT22;9158;51.528;7.192;2023-08-24T00:15:59;18.90;99.90
18067;DHT22;9158;51.528;7.192;2023-08-24T00:16:30;18.90;99.90
18067;DHT22;9158;51.528;7.192;2023-08-24T00:17:02;18.90;99.90
18067;DHT22;9158;51.528;7.192;2023-08-24T00:17:32;18.90;99.90
18067;DHT22;9158;51.528;7.192;2023-08-24T00:18:04;18.90;99.90
18067;DHT22;9158;51.528;7.192;2023-08-24T00:18:35;18.90;99.90
18067;DHT22;9158;51.528;7.192;2023-08-24T00:19:08;18.90;99.90
18067;DHT22;9158;51.528;7.192;2023-08-24T00:19:39;18.90;99.90
18067;DHT22;9158;51.528;7.192;2023-08-24T00:20:11;18.90;99.90
18067;DHT22;9158;51.528;7.192;2023-08-24T00:20:44;18.90;99.90
18067;DHT22;9158;51.528;7.192;2023-08-24T00:21:15;18.90;99.90
18067;DHT22;9158;51.528;7.192;2023-08-24T00:21:47;18.90;99.90
18067;DHT22;9158;51.528;7.192;2023-08-24T00:22:19;18.90;99.90
18067;DHT22;9158;51.528;7.192;2023-08-24T00:22:50;18.90;1.00
18067;DHT22;9158;51.528;7.192;2023-08-24T00:23:21;18.90;99.90
18067;DHT22;9158;51.528;7.192;2023-08-24T00:23:53;18.80;99.90
18067;DHT22;9158;51.528;7.192;2023-08-24T00:24:24;18.90;99.90
18067;DHT22;9158;51.528;7.192;2023-08-24T00:24:56;18.80;99.90
18067;DHT22;9158;51.528;7.192;2023-08-24T00:25:27;18.80;99.90
18067;DHT22;9158;51.528;7.192;2023-08-24T00:25:58;18.80;99.90
18067;DHT22;9158;51.528;7.192;2023-08-24T00:26:29;18.80;99.90
18067;DHT22;9158;51.528;7.192;2023-08-24T00:27:01;18.80;1.00
18067;DHT22;9158;51.528;7.192;2023-08-24T00:27:32;18.80;99.90
18067;DHT22;9158;51.528;7.192;2023-08-24T00:28:04;18.80;99.90
18067;DHT22;9158;51.528;7.192;2023-08-24T00:28:35;18.80;99.90
18067;DHT22;9158;51.528;7.192;2023-08-24T00:29:07;18.80;99.90
18067;DHT22;9158;51.528;7.192;2023-08-24T00:29:38;18.80;99.90
18067;DHT22;9158;51.528;7.192;2023-08-24T00:30:10;18.80;99.90
18067;DHT22;9158;51.528;7.192;2023-08-24T00:30:41;18.80;99.90
18067;DHT22;9158;51.528;7.192;2023-08-24T00:31:15;18.80;99.90
18067;DHT22;9158;51.528;7.192;2023-08-24T00:31:46;18.90;99.90
18067;DHT22;9158;51.528;7.192;2023-08-24T00:32:18;18.90;99.90
18067;DHT22;9158;51.528;7.192;2023-08-24T00:32:49;18.90;99.90
18067;DHT22;9158;51.528;7.192;2023-08-24T00:33:21;18.90;99.90
18067;DHT22;9158;51.528;7.192;2023-08-24T00:33:52;18.90;99.90
18067;DHT22;9158;51.528;7.192;2023-08-24T00:34:24;18.90;99.90
18067;DHT22;9158;51.528;7.192;2023-08-24T00:34:56;18.80;99.90
18067;DHT22;9158;51.528;7.192;2023-08-24T00:35:27;18.80;99.90
18067;DHT22;9158;51.528;7.192;2023-08-24T00:36:02;18.80;99.90
18067;DHT22;9158;51.528;7.192;2023-08-24T00:36:33;18.80;99.90
18067;DHT22;9158;51.528;7.192;2023-08-24T00:37:04;18.80;99.90
18067;DHT22;9158;51.528;7.192;2023-08-24T00:37:37;18.70;99.90
18067;DHT22;9158;51.528;7.192;2023-08-24T00:38:08;18.70;99.90
18067;DHT22;9158;51.528;7.192;2023-08-24T00:38:39;18.60;99.90
18067;DHT22;9158;51.528;7.192;2023-08-24T00:39:10;18.60;99.90
18067;DHT22;9158;51.528;7.192;2023-08-24T00:39:42;18.60;99.90
18067;DHT22;9158;51.528;7.192;2023-08-24T00:40:14;18.60;99.90
18067;DHT22;9158;51.528;7.192;2023-08-24T00:40:45;18.70;99.90
18067;DHT22;9158;51.528;7.192;2023-08-24T00:41:16;18.70;99.90
18067;DHT22;9158;51.528;7.192;2023-08-24T00:41:48;18.70;99.90
18067;DHT22;9158;51.528;7.192;2023-08-24T00:42:20;18.70;99.90
18067;DHT22;9158;51.528;7.192;2023-08-24T00:42:51;18.70;99.90
18067;DHT22;9158;51.528;7.192;2023-08-24T00:43:22;18.70;99.90
18067;DHT22;9158;51.528;7.192;2023-08-24T00:43:54;18.70;99.90
18067;DHT22;9158;51.528;7.192;2023-08-24T00:44:26;18.70;99.90
18067;DHT22;9158;51.528;7.192;2023-08-24T00:44:57;18.70;99.90
18067;DHT22;9158;51.528;7.192;2023-08-24T00:45:28;18.60;99.90
18067;DHT22;9158;51.528;7.192;2023-08-24T00:46:03;18.70;99.90
18067;DHT22;9158;51.528;7.192;2023-08-24T00:46:35;18.70;99.90
18067;DHT22;9158;51.528;7.192;2023-08-24T00:47:06;18.60;99.90
18067;DHT22;9158;51.528;7.192;2023-08-24T00:47:41;18.70;1.00
18067;DHT22;9158;51.528;7.192;2023-08-24T00:48:13;18.70;99.90
18067;DHT22;9158;51.528;7.192;2023-08-24T00:48:44;18.70;1.00
18067;DHT22;9158;51.528;7.192;2023-08-24T00:49:16;18.70;99.90
18067;DHT22;9158;51.528;7.192;2023-08-24T00:49:49;18.60;99.90
18067;DHT22;9158;51.528;7.192;2023-08-24T00:50:20;18.70;1.00
18067;DHT22;9158;51.528;7.192;2023-08-24T00:50:52;18.70;99.90
18067;DHT22;9158;51.528;7.192;2023-08-24T00:51:24;18.70;1.00
18067;DHT22;9158;51.528;7.192;2023-08-24T00:51:55;18.70;99.90
18067;DHT22;9158;51.528;7.192;2023-08-24T00:52:27;18.70;99.90
18067;DHT22;9158;51.528;7.192;2023-08-24T00:52:59;18.70;99.90
18067;DHT22;9158;51.528;7.192;2023-08-24T00:53:31;18.70;99.90
18067;DHT22;9158;51.528;7.192;2023-08-24T00:54:03;18.70;99.90
18067;DHT22;9158;51.528;7.192;2023-08-24T00:54:36;18.70;99.90
18067;DHT22;9158;51.528;7.192;2023-08-24T00:55:09;18.70;99.90
18067;DHT22;9158;51.528;7.192;2023-08-24T00:55:41;18.70;99.90
18067;DHT22;9158;51.528;7.192;2023-08-24T00:56:14;18.80;99.90
18067;DHT22;9158;51.528;7.192;2023-08-24T00:56:45;18.70;99.90
18067;DHT22;9158;51.528;7.192;2023-08-24T00:57:16;18.70;99.90
18067;DHT22;9158;51.528;7.192;2023-08-24T00:57:48;18.80;99.90
18067;DHT22;9158;51.528;7.192;2023-08-24T00:58:21;18.80;99.90
18067;DHT22;9158;51.528;7.192;2023-08-24T00:58:54;18.70;99.90
18067;DHT22;9158;51.528;7.192;2023-08-24T00:59:25;18.70;99.90
18067;DHT22;9158;51.528;7.192;2023-08-24T00:59:56;18.70;99.90
18067;DHT22;9158;51.528;7.192;2023-08-24T01:00:29;18.80;99.90
18067;DHT22;9158;51.528;7.192;2023-08-24T01:01:00;18.70;99.90
18067;DHT22;9158;51.528;7.192;2023-08-24T01:01:31;18.70;99.90
18067;DHT22;9158;51.528;7.192;2023-08-24T01:02:03;18.70;99.90
18067;DHT22;9158;51.528;7.192;2023-08-24T01:02:36;18.70;99.90
18067;DHT22;9158;51.528;7.192;2023-08-24T01:03:07;18.70;99.90
18067;DHT22;9158;51.528;7.192;2023-08-24T01:03:38;18.60;99.90
18067;DHT22;9158;51.528;7.192;2023-08-24T01:04:10;18.70;99.90
18067;DHT22;9158;51.528;7.192;2023-08-24T01:04:42;18.60;99.90
18067;DHT22;9158;51.528;7.192;2023-08-24T01:05:14;18.60;99.90
18067;DHT22;9158;51.528;7.192;2023-08-24T01:05:45;18.70;99.90
18067;DHT22;9158;51.528;7.192;2023-08-24T01:06:17;18.70;99.90
18067;DHT22;9158;51.528;7.192;2023-08-24T01:06:49;18.70;99.90
18067;DHT22;9158;51.528;7.192;2023-08-24T01:07:20;18.60;99.90
18067;DHT22;9158;51.528;7.192;2023-08-24T01:07:51;18.70;99.90
18067;DHT22;9158;51.528;7.192;2023-08-24T01:08:24;18.60;99.90
18067;DHT22;9158;51.528;7.192;2023-08-24T01:08:55;18.60;99.90
18067;DHT22;9158;51.528;7.192;2023-08-24T01:09:26;18.60;99.90
18067;DHT22;9158;51.528;7.192;2023-08-24T01:09:57;18.60;99.90
18067;DHT22;9158;51.528;7.192;2023-08-24T01:10:36;18.60;99.90
18067;DHT22;9158;51.528;7.192;2023-08-24T01:11:18;18.60;99.90
18067;DHT22;9158;51.528;7.192;2023-08-24T01:12:02;18.60;99.90
18067;DHT22;9158;51.528;7.192;2023-08-24T01:12:45;18.50;99.90
18067;DHT22;9158;51.528;7.192;2023-08-24T01:13:25;18.50;99.90
18067;DHT22;9158;51.528;7.192;2023-08-24T01:14:04;18.50;99.90
18067;DHT22;9158;51.528;7.192;2023-08-24T01:14:44;18.50;99.90
18067;DHT22;9158;51.528;7.192;2023-08-24T01:15:23;18.50;99.90
18067;DHT22;9158;51.528;7.192;2023-08-24T01:16:01;18.50;99.90
18067;DHT22;9158;51.528;7.192;2023-08-24T01:16:38;18.50;99.90
18067;DHT22;9158;51.528;7.192;2023-08-24T01:17:14;18.50;99.90
18067;DHT22;9158;51.528;7.192;2023-08-24T01:17:47;18.50;99.90
18067;DHT22;9158;51.528;7.192;2023-08-24T01:18:21;18.60;99.90
18067;DHT22;9158;51.528;7.192;2023-08-24T01:18:58;18.50;99.90
18067;DHT22;9158;51.528;7.192;2023-08-24T01:19:37;18.60;99.90
18067;DHT22;9158;51.528;7.192;2023-08-24T01:20:09;18.60;99.90
18067;DHT22;9158;51.528;7.192;2023-08-24T01:20:44;18.60;99.90
18067;DHT22;9158;51.528;7.192;2023-08-24T01:21:15;18.60;99.90
18067;DHT22;9158;51.528;7.192;2023-08-24T01:21:47;18.60;99.90
18067;DHT22;9158;51.528;7.192;2023-08-24T01:22:31;18.60;99.90
18067;DHT22;9158;51.528;7.192;2023-08-24T01:23:09;18.60;99.90
18067;DHT22;9158;51.528;7.192;2023-08-24T01:23:53;18.60;99.90
18067;DHT22;9158;51.528;7.192;2023-08-24T01:24:31;18.60;99.90
18067;DHT22;9158;51.528;7.192;2023-08-24T01:25:10;18.60;99.90
18067;DHT22;9158;51.528;7.192;2023-08-24T01:25:53;18.60;99.90
18067;DHT22;9158;51.528;7.192;2023-08-24T01:26:26;18.60;99.90
18067;DHT22;9158;51.528;7.192;2023-08-24T01:26:59;18.60;99.90
18067;DHT22;9158;51.528;7.192;2023-08-24T01:27:32;18.60;99.90
18067;DHT22;9158;51.528;7.192;2023-08-24T01:28:06;18.60;99.90
18067;DHT22;9158;51.528;7.192;2023-08-24T01:28:38;18.60;99.90
18067;DHT22;9158;51.528;7.192;2023-08-24T01:29:11;18.60;99.90
18067;DHT22;9158;51.528;7.192;2023-08-24T01:29:43;18.60;99.90
18067;DHT22;9158;51.528;7.192;2023-08-24T01:30:15;18.50;99.90
18067;DHT22;9158;51.528;7.192;2023-08-24T01:30:47;18.50;99.90
18067;DHT22;9158;51.528;7.192;2023-08-24T01:31:18;18.50;99.90
18067;DHT22;9158;51.528;7.192;2023-08-24T01:31:53;18.50;99.90
18067;DHT22;9158;51.528;7.192;2023-08-24T01:32:23;18.40;99.90
18067;DHT22;9158;51.528;7.192;2023-08-24T01:32:55;18.40;99.90
18067;DHT22;9158;51.528;7.192;2023-08-24T01:33:26;18.40;99.90
18067;DHT22;9158;51.528;7.192;2023-08-24T01:33:58;18.30;99.90
18067;DHT22;9158;51.528;7.192;2023-08-24T01:34:30;18.30;99.90
18067;DHT22;9158;51.528;7.192;2023-08-24T01:35:03;18.30;1.00
18067;DHT22;9158;51.528;7.192;2023-08-24T01:35:34;18.30;1.00
18067;DHT22;9158;51.528;7.192;2023-08-24T01:36:07;18.30;1.00
18067;DHT22;9158;51.528;7.192;2023-08-24T01:36:39;18.30;1.00
18067;DHT22;9158;51.528;7.192;2023-08-24T01:37:10;18.30;1.00
18067;DHT22;9158;51.528;7.192;2023-08-24T01:37:42;18.30;1.00
18067;DHT22;9158;51.528;7.192;2023-08-24T01:38:13;18.30;1.00
18067;DHT22;9158;51.528;7.192;2023-08-24T01:38:55;18.30;1.00
18067;DHT22;9158;51.528;7.192;2023-08-24T01:39:36;18.30;1.00
18067;DHT22;9158;51.528;7.192;2023-08-24T01:40:13;18.30;1.00
18067;DHT22;9158;51.528;7.192;2023-08-24T01:40:50;18.30;1.00
18067;DHT22;9158;51.528;7.192;2023-08-24T01:41:29;18.30;1.00
18067;DHT22;9158;51.528;7.192;2023-08-24T01:42:03;18.20;1.00
18067;DHT22;9158;51.528;7.192;2023-08-24T01:42:45;18.20;1.00
18067;DHT22;9158;51.528;7.192;2023-08-24T01:43:24;18.10;1.00
18067;DHT22;9158;51.528;7.192;2023-08-24T01:43:58;18.10;1.00
18067;DHT22;9158;51.528;7.192;2023-08-24T01:44:32;18.10;1.00
18067;DHT22;9158;51.528;7.192;2023-08-24T01:45:07;18.10;1.00
18067;DHT22;9158;51.528;7.192;2023-08-24T01:45:41;18.10;1.00
18067;DHT22;9158;51.528;7.192;2023-08-24T01:46:15;18.10;1.00
18067;DHT22;9158;51.528;7.192;2023-08-24T01:46:48;18.10;1.00
18067;DHT22;9158;51.528;7.192;2023-08-24T01:47:21;18.10;1.00
18067;DHT22;9158;51.528;7.192;2023-08-24T01:47:54;18.10;1.00
18067;DHT22;9158;51.528;7.192;2023-08-24T01:48:26;18.10;1.00
18067;DHT22;9158;51.528;7.192;2023-08-24T01:48:58;18.10;1.00
18067;DHT22;9158;51.528;7.192;2023-08-24T01:49:30;18.10;1.00
18067;DHT22;9158;51.528;7.192;2023-08-24T01:50:03;18.20;1.00
18067;DHT22;9158;51.528;7.192;2023-08-24T01:50:35;18.20;1.00
18067;DHT22;9158;51.528;7.192;2023-08-24T01:51:07;18.20;1.00
18067;DHT22;9158;51.528;7.192;2023-08-24T01:51:41;18.20;1.00
18067;DHT22;9158;51.528;7.192;2023-08-24T01:52:13;18.10;1.00
18067;DHT22;9158;51.528;7.192;2023-08-24T01:52:46;18.10;1.00
18067;DHT22;9158;51.528;7.192;2023-08-24T01:53:17;18.10;1.00
18067;DHT22;9158;51.528;7.192;2023-08-24T01:53:48;18.10;1.00
18067;DHT22;9158;51.528;7.192;2023-08-24T01:54:20;18.10;1.00
18067;DHT22;9158;51.528;7.192;2023-08-24T01:54:52;18.00;1.00
18067;DHT22;9158;51.528;7.192;2023-08-24T01:55:23;18.10;1.00
18067;DHT22;9158;51.528;7.192;2023-08-24T01:55:54;18.10;1.00
18067;DHT22;9158;51.528;7.192;2023-08-24T01:56:26;18.10;1.00
18067;DHT22;9158;51.528;7.192;2023-08-24T01:56:58;18.10;1.00
18067;DHT22;9158;51.528;7.192;2023-08-24T01:57:29;18.10;1.00
18067;DHT22;9158;51.528;7.192;2023-08-24T01:58:00;18.10;1.00
18067;DHT22;9158;51.528;7.192;2023-08-24T01:58:31;18.10;1.00
18067;DHT22;9158;51.528;7.192;2023-08-24T01:59:03;18.10;1.00
18067;DHT22;9158;51.528;7.192;2023-08-24T01:59:34;18.10;1.00
18067;DHT22;9158;51.528;7.192;2023-08-24T02:00:07;18.10;1.00
18067;DHT22;9158;51.528;7.192;2023-08-24T02:00:44;18.20;1.00
18067;DHT22;9158;51.528;7.192;2023-08-24T02:01:16;18.20;1.00
18067;DHT22;9158;51.528;7.192;2023-08-24T02:01:52;18.20;1.00
18067;DHT22;9158;51.528;7.192;2023-08-24T02:02:24;18.20;1.00
18067;DHT22;9158;51.528;7.192;2023-08-24T02:02:55;18.20;1.00
18067;DHT22;9158;51.528;7.192;2023-08-24T02:03:28;18.20;1.00
18067;DHT22;9158;51.528;7.192;2023-08-24T02:03:59;18.20;1.00
18067;DHT22;9158;51.528;7.192;2023-08-24T02:04:30;18.20;1.00
18067;DHT22;9158;51.528;7.192;2023-08-24T02:05:01;18.20;1.00
18067;DHT22;9158;51.528;7.192;2023-08-24T02:05:33;18.20;1.00
18067;DHT22;9158;51.528;7.192;2023-08-24T02:06:04;18.10;1.00
18067;DHT22;9158;51.528;7.192;2023-08-24T02:06:37;18.10;1.00
18067;DHT22;9158;51.528;7.192;2023-08-24T02:07:08;18.10;1.00
18067;DHT22;9158;51.528;7.192;2023-08-24T02:07:40;18.00;1.00
18067;DHT22;9158;51.528;7.192;2023-08-24T02:08:11;18.00;1.00
18067;DHT22;9158;51.528;7.192;2023-08-24T02:08:42;18.00;1.00
18067;DHT22;9158;51.528;7.192;2023-08-24T02:09:15;18.00;1.00
18067;DHT22;9158;51.528;7.192;2023-08-24T02:09:47;18.00;1.00
18067;DHT22;9158;51.528;7.192;2023-08-24T02:10:18;18.00;1.00
18067;DHT22;9158;51.528;7.192;2023-08-24T02:10:49;18.00;1.00
18067;DHT22;9158;51.528;7.192;2023-08-24T02:11:20;18.00;1.00
18067;DHT22;9158;51.528;7.192;2023-08-24T02:11:53;18.00;1.00
18067;DHT22;9158;51.528;7.192;2023-08-24T02:12:24;18.00;1.00
18067;DHT22;9158;51.528;7.192;2023-08-24T02:12:55;18.10;1.00
18067;DHT22;9158;51.528;7.192;2023-08-24T02:13:26;18.10;1.00
18067;DHT22;9158;51.528;7.192;2023-08-24T02:13:59;18.10;1.00
18067;DHT22;9158;51.528;7.192;2023-08-24T02:14:30;18.10;1.00
18067;DHT22;9158;51.528;7.192;2023-08-24T02:15:01;18.10;1.00
18067;DHT22;9158;51.528;7.192;2023-08-24T02:15:32;18.10;1.00
18067;DHT22;9158;51.528;7.192;2023-08-24T02:16:04;18.10;1.00
18067;DHT22;9158;51.528;7.192;2023-08-24T02:16:36;18.10;1.00
18067;DHT22;9158;51.528;7.192;2023-08-24T02:17:07;18.10;99.90
18067;DHT22;9158;51.528;7.192;2023-08-24T02:17:39;18.10;1.00
18067;DHT22;9158;51.528;7.192;2023-08-24T02:18:10;18.00;1.00
18067;DHT22;9158;51.528;7.192;2023-08-24T02:18:41;18.00;99.90
18067;DHT22;9158;51.528;7.192;2023-08-24T02:19:12;18.00;99.90
18067;DHT22;9158;51.528;7.192;2023-08-24T02:19:45;18.00;1.00
18067;DHT22;9158;51.528;7.192;2023-08-24T02:20:16;17.90;1.00
18067;DHT22;9158;51.528;7.192;2023-08-24T02:20:47;17.90;1.00
18067;DHT22;9158;51.528;7.192;2023-08-24T02:21:19;17.90;1.00
18067;DHT22;9158;51.528;7.192;2023-08-24T02:21:50;17.90;1.00
18067;DHT22;9158;51.528;7.192;2023-08-24T02:22:21;17.90;1.00
18067;DHT22;9158;51.528;7.192;2023-08-24T02:22:52;18.00;1.00
18067;DHT22;9158;51.528;7.192;2023-08-24T02:23:23;18.00;1.00
18067;DHT22;9158;51.528;7.192;2023-08-24T02:23:55;18.00;1.00
18067;DHT22;9158;51.528;7.192;2023-08-24T02:24:26;18.00;1.00
18067;DHT22;9158;51.528;7.192;2023-08-24T02:24:57;18.00;1.00
18067;DHT22;9158;51.528;7.192;2023-08-24T02:25:28;18.00;1.00
18067;DHT22;9158;51.528;7.192;2023-08-24T02:26:00;18.00;1.00
18067;DHT22;9158;51.528;7.192;2023-08-24T02:26:31;18.00;1.00
18067;DHT22;9158;51.528;7.192;2023-08-24T02:27:04;18.00;1.00
18067;DHT22;9158;51.528;7.192;2023-08-24T02:27:36;18.00;1.00
18067;DHT22;9158;51.528;7.192;2023-08-24T02:28:07;18.00;1.00
18067;DHT22;9158;51.528;7.192;2023-08-24T02:28:38;18.00;1.00
18067;DHT22;9158;51.528;7.192;2023-08-24T02:29:09;18.10;1.00
18067;DHT22;9158;51.528;7.192;2023-08-24T02:29:41;18.10;1.00
18067;DHT22;9158;51.528;7.192;2023-08-24T02:30:13;18.10;1.00
18067;DHT22;9158;51.528;7.192;2023-08-24T02:30:44;18.10;1.00
18067;DHT22;9158;51.528;7.192;2023-08-24T02:31:15;18.10;99.90
18067;DHT22;9158;51.528;7.192;2023-08-24T02:31:49;18.00;99.90
18067;DHT22;9158;51.528;7.192;2023-08-24T02:32:20;18.00;99.90
18067;DHT22;9158;51.528;7.192;2023-08-24T02:32:51;18.00;1.00
18067;DHT22;9158;51.528;7.192;2023-08-24T02:33:22;18.00;1.00
18067;DHT22;9158;51.528;7.192;2023-08-24T02:33:54;18.00;1.00
18067;DHT22;9158;51.528;7.192;2023-08-24T02:34:25;17.90;1.00
18067;DHT22;9158;51.528;7.192;2023-08-24T02:35:01;17.90;1.00
18067;DHT22;9158;51.528;7.192;2023-08-24T02:35:35;17.80;1.00
18067;DHT22;9158;51.528;7.192;2023-08-24T02:36:07;17.80;1.00
18067;DHT22;9158;51.528;7.192;2023-08-24T02:36:38;17.80;1.00
18067;DHT22;9158;51.528;7.192;2023-08-24T02:37:09;17.70;1.00
18067;DHT22;9158;51.528;7.192;2023-08-24T02:37:40;17.70;1.00
18067;DHT22;9158;51.528;7.192;2023-08-24T02:38:12;17.80;1.00
18067;DHT22;9158;51.528;7.192;2023-08-24T02:38:43;17.80;1.00
18067;DHT22;9158;51.528;7.192;2023-08-24T02:39:14;17.80;1.00
18067;DHT22;9158;51.528;7.192;2023-08-24T02:39:47;17.70;1.00
18067;DHT22;9158;51.528;7.192;2023-08-24T02:40:18;17.80;1.00
18067;DHT22;9158;51.528;7.192;2023-08-24T02:40:49;17.70;1.00
18067;DHT22;9158;51.528;7.192;2023-08-24T02:41:20;17.70;1.00
18067;DHT22;9158;51.528;7.192;2023-08-24T02:41:52;17.70;1.00
18067;DHT22;9158;51.528;7.192;2023-08-24T02:42:24;17.70;1.00
18067;DHT22;9158;51.528;7.192;2023-08-24T02:42:55;17.70;1.00
18067;DHT22;9158;51.528;7.192;2023-08-24T02:43:26;17.70;1.00
18067;DHT22;9158;51.528;7.192;2023-08-24T02:43:59;17.60;1.00
18067;DHT22;9158;51.528;7.192;2023-08-24T02:44:30;17.60;1.00
18067;DHT22;9158;51.528;7.192;2023-08-24T02:45:02;17.60;1.00
18067;DHT22;9158;51.528;7.192;2023-08-24T02:45:35;17.60;1.00
18067;DHT22;9158;51.528;7.192;2023-08-24T02:46:07;17.60;1.00
18067;DHT22;9158;51.528;7.192;2023-08-24T02:46:39;17.60;1.00
18067;DHT22;9158;51.528;7.192;2023-08-24T02:47:10;17.60;1.00
18067;DHT22;9158;51.528;7.192;2023-08-24T02:47:42;17.60;1.00
18067;DHT22;9158;51.528;7.192;2023-08-24T02:48:13;17.60;1.00
18067;DHT22;9158;51.528;7.192;2023-08-24T02:48:44;17.60;1.00
18067;DHT22;9158;51.528;7.192;2023-08-24T02:49:15;17.70;1.00
18067;DHT22;9158;51.528;7.192;2023-08-24T02:49:48;17.70;1.00
18067;DHT22;9158;51.528;7.192;2023-08-24T02:50:19;17.70;1.00
18067;DHT22;9158;51.528;7.192;2023-08-24T02:50:50;17.70;1.00
18067;DHT22;9158;51.528;7.192;2023-08-24T02:51:22;17.70;1.00
18067;DHT22;9158;51.528;7.192;2023-08-24T02:51:54;17.70;1.00
18067;DHT22;9158;51.528;7.192;2023-08-24T02:52:25;17.70;1.00
18067;DHT22;9158;51.528;7.192;2023-08-24T02:52:56;17.70;1.00
18067;DHT22;9158;51.528;7.192;2023-08-24T02:53:29;17.80;1.00
18067;DHT22;9158;51.528;7.192;2023-08-24T02:54:01;17.80;1.00
18067;DHT22;9158;51.528;7.192;2023-08-24T02:54:32;17.80;1.00
18067;DHT22;9158;51.528;7.192;2023-08-24T02:55:06;17.80;1.00
18067;DHT22;9158;51.528;7.192;2023-08-24T02:55:38;17.80;1.00
18067;DHT22;9158;51.528;7.192;2023-08-24T02:56:10;17.80;1.00
18067;DHT22;9158;51.528;7.192;2023-08-24T02:56:41;17.80;1.00
18067;DHT22;9158;51.528;7.192;2023-08-24T02:57:12;17.80;1.00
18067;DHT22;9158;51.528;7.192;2023-08-24T02:57:46;17.80;1.00
18067;DHT22;9158;51.528;7.192;2023-08-24T02:58:17;17.80;1.00
18067;DHT22;9158;51.528;7.192;2023-08-24T02:58:48;17.70;1.00
18067;DHT22;9158;51.528;7.192;2023-08-24T02:59:20;17.70;1.00
18067;DHT22;9158;51.528;7.192;2023-08-24T02:59:52;17.70;1.00
18067;DHT22;9158;51.528;7.192;2023-08-24T03:00:23;17.70;1.00
18067;DHT22;9158;51.528;7.192;2023-08-24T03:00:55;17.70;1.00
18067;DHT22;9158;51.528;7.192;2023-08-24T03:01:27;17.70;1.00
18067;DHT22;9158;51.528;7.192;2023-08-24T03:01:58;17.70;1.00
18067;DHT22;9158;51.528;7.192;2023-08-24T03:02:30;17.70;1.00
18067;DHT22;9158;51.528;7.192;2023-08-24T03:03:03;17.70;1.00
18067;DHT22;9158;51.528;7.192;2023-08-24T03:03:37;17.70;1.00
18067;DHT22;9158;51.528;7.192;2023-08-24T03:04:09;17.70;1.00
18067;DHT22;9158;51.528;7.192;2023-08-24T03:04:41;17.70;1.00
18067;DHT22;9158;51.528;7.192;2023-08-24T03:05:12;17.60;1.00
18067;DHT22;9158;51.528;7.192;2023-08-24T03:05:53;17.60;1.00
18067;DHT22;9158;51.528;7.192;2023-08-24T03:06:25;17.60;1.00
18067;DHT22;9158;51.528;7.192;2023-08-24T03:06:57;17.60;1.00
18067;DHT22;9158;51.528;7.192;2023-08-24T03:07:28;17.60;1.00
18067;DHT22;9158;51.528;7.192;2023-08-24T03:07:59;17.60;1.00
18067;DHT22;9158;51.528;7.192;2023-08-24T03:08:31;17.60;17.30
18067;DHT22;9158;51.528;7.192;2023-08-24T03:09:03;17.60;26.20
18067;DHT22;9158;51.528;7.192;2023-08-24T03:09:34;17.60;22.80
18067;DHT22;9158;51.528;7.192;2023-08-24T03:10:06;17.60;42.00
18067;DHT22;9158;51.528;7.192;2023-08-24T03:10:37;17.60;71.00
18067;DHT22;9158;51.528;7.192;2023-08-24T03:11:10;17.60;99.90
18067;DHT22;9158;51.528;7.192;2023-08-24T03:11:41;17.60;97.30
18067;DHT22;9158;51.528;7.192;2023-08-24T03:12:12;17.60;99.90
18067;DHT22;9158;51.528;7.192;2023-08-24T03:12:46;17.60;99.90
18067;DHT22;9158;51.528;7.192;2023-08-24T03:13:17;17.60;99.90
18067;DHT22;9158;51.528;7.192;2023-08-24T03:13:47;17.60;99.90
18067;DHT22;9158;51.528;7.192;2023-08-24T03:14:19;17.60;99.90
18067;DHT22;9158;51.528;7.192;2023-08-24T03:14:51;17.60;99.90
18067;DHT22;9158;51.528;7.192;2023-08-24T03:15:23;17.60;99.90
18067;DHT22;9158;51.528;7.192;2023-08-24T03:15:56;17.60;99.90
18067;DHT22;9158;51.528;7.192;2023-08-24T03:16:29;17.60;99.90
18067;DHT22;9158;51.528;7.192;2023-08-24T03:17:00;17.60;99.90
18067;DHT22;9158;51.528;7.192;2023-08-24T03:17:31;17.60;99.90
18067;DHT22;9158;51.528;7.192;2023-08-24T03:18:04;17.60;99.90
18067;DHT22;9158;51.528;7.192;2023-08-24T03:18:35;17.60;99.90
18067;DHT22;9158;51.528;7.192;2023-08-24T03:19:08;17.60;99.90
18067;DHT22;9158;51.528;7.192;2023-08-24T03:19:39;17.60;99.90
18067;DHT22;9158;51.528;7.192;2023-08-24T03:20:11;17.60;99.90
18067;DHT22;9158;51.528;7.192;2023-08-24T03:20:43;17.60;99.90
18067;DHT22;9158;51.528;7.192;2023-08-24T03:21:15;17.50;99.90
18067;DHT22;9158;51.528;7.192;2023-08-24T03:21:46;17.60;99.90
18067;DHT22;9158;51.528;7.192;2023-08-24T03:22:18;17.50;99.90
18067;DHT22;9158;51.528;7.192;2023-08-24T03:22:49;17.50;99.90
18067;DHT22;9158;51.528;7.192;2023-08-24T03:23:19;17.50;99.90
18067;DHT22;9158;51.528;7.192;2023-08-24T03:23:50;17.60;99.90
18067;DHT22;9158;51.528;7.192;2023-08-24T03:24:23;17.60;99.90
18067;DHT22;9158;51.528;7.192;2023-08-24T03:24:54;17.60;99.90
18067;DHT22;9158;51.528;7.192;2023-08-24T03:25:25;17.60;99.90
18067;DHT22;9158;51.528;7.192;2023-08-24T03:25:57;17.60;99.90
18067;DHT22;9158;51.528;7.192;2023-08-24T03:26:30;17.70;99.90
18067;DHT22;9158;51.528;7.192;2023-08-24T03:27:01;17.70;99.90
18067;DHT22;9158;51.528;7.192;2023-08-24T03:27:32;17.70;99.90
18067;DHT22;9158;51.528;7.192;2023-08-24T03:28:06;17.70;99.90
18067;DHT22;9158;51.528;7.192;2023-08-24T03:28:37;17.80;99.90
18067;DHT22;9158;51.528;7.192;2023-08-24T03:29:09;17.80;51.90
18067;DHT22;9158;51.528;7.192;2023-08-24T03:29:41;17.80;52.20